Time;durP1;ratioP1;P1;durP2;ratioP2;P2;SDS_P1;SDS_P2;PMS_P1;PMS_P2;Temp;Humidity;BMP_temperature;BMP_pressure;BME280_temperature;BME280_humidity;BME280_pressure;Samples;Min_cycle;Max_cycle;Signal;HPM_P1;HPM_P2
2024/01/05 00:00:03;;;;;;;;;;;;;;;2.57;100.00;95020.69;5056389;28;988;-63
2024/01/05 00:02:29;;;;;;;;;;;;;;;2.47;100.00;95021.38;5038280;28;1918;-62
2024/01/05 00:04:56;;;;;;;;;;;;;;;2.66;100.00;95014.72;5056345;28;1036;-63
2024/01/05 00:07:21;;;;;;;;;;;;;;;2.71;100.00;95020.47;5055752;28;1030;-62
2024/01/05 00:09:47;;;;;;;;;;;;;;;2.85;100.00;95014.16;5055915;28;1107;-62
2024/01/05 00:12:13;;;;;;;;;;;;;;;2.80;100.00;95022.44;5055808;28;1150;-62
2024/01/05 00:14:39;;;;;;;;;;;;;;;2.69;100.00;95025.91;5055801;28;1091;-62
2024/01/05 00:17:05;;;;;;;;;;;;;;;2.78;100.00;95016.44;5055948;28;965;-63
2024/01/05 00:19:31;;;;;;;;;;;;;;;2.75;100.00;95032.50;5055663;28;1032;-63
2024/01/05 00:21:57;;;;;;;;;;;;;;;2.78;100.00;95042.00;5055657;28;1906;-62
2024/01/05 00:24:23;;;;;;;;;;;;;;;2.68;100.00;95040.06;5038178;28;1056;-62
2024/01/05 00:26:49;;;;;;;;;;;;;;;2.65;100.00;95045.53;5055665;28;1180;-63
2024/01/05 00:29:15;;;;;;;;;;;;;;;2.53;100.00;95052.59;5055714;28;1158;-62
2024/01/05 00:31:41;;;;;;;;;;;;;;;2.54;100.00;95049.00;5055842;28;986;-62
2024/01/05 00:34:07;;;;;;;;;;;;;;;2.45;100.00;95043.59;5055556;28;990;-62
2024/01/05 00:36:33;;;;;;;;;;;;;;;2.53;100.00;95052.59;5055864;28;982;-62
2024/01/05 00:38:59;;;;;;;;;;;;;;;2.65;100.00;95060.56;5055411;28;1044;-62
2024/01/05 00:41:25;;;;;;;;;;;;;;;2.75;100.00;95056.25;5053946;28;1049;-62
2024/01/05 00:43:51;;;;;;;;;;;;;;;2.77;100.00;95057.00;5055477;28;1918;-62
2024/01/05 00:46:17;;;;;;;;;;;;;;;2.70;100.00;95053.97;5055284;28;966;-62
2024/01/05 00:48:43;;;;;;;;;;;;;;;2.77;100.00;95056.16;5055441;28;978;-61
2024/01/05 00:51:09;;;;;;;;;;;;;;;2.98;100.00;95056.31;5055146;28;1203;-61
2024/01/05 00:53:35;;;;;;;;;;;;;;;2.90;100.00;95056.91;5054999;28;939;-62
2024/01/05 00:56:01;;;;;;;;;;;;;;;2.88;100.00;95053.53;5037372;28;1107;-62
2024/01/05 00:58:27;;;;;;;;;;;;;;;2.47;100.00;95041.66;5037207;28;986;-62
2024/01/05 01:00:53;;;;;;;;;;;;;;;2.37;100.00;95051.22;5055300;28;1058;-62
2024/01/05 01:03:19;;;;;;;;;;;;;;;2.46;100.00;95054.00;5054853;28;1997;-63
2024/01/05 01:05:45;;;;;;;;;;;;;;;2.69;100.00;95070.78;5055203;28;976;-62
2024/01/05 01:08:12;;;;;;;;;;;;;;;2.78;100.00;95056.03;5055072;28;1053;-63
2024/01/05 01:10:38;;;;;;;;;;;;;;;2.82;100.00;95056.66;5055011;28;1076;-62
2024/01/05 01:13:05;;;;;;;;;;;;;;;2.78;100.00;95053.38;5055060;28;1006;-62
2024/01/05 01:15:31;;;;;;;;;;;;;;;2.90;100.00;95057.75;5055026;28;992;-63
2024/01/05 01:17:57;;;;;;;;;;;;;;;2.89;100.00;95056.06;5054934;28;996;-62
2024/01/05 01:20:23;;;;;;;;;;;;;;;2.96;100.00;95061.72;5054856;28;1038;-63
2024/01/05 01:22:48;;;;;;;;;;;;;;;2.86;100.00;95064.19;5055007;28;1902;-62
2024/01/05 01:25:14;;;;;;;;;;;;;;;2.80;100.00;95061.19;5054706;28;1049;-63
2024/01/05 01:27:40;;;;;;;;;;;;;;;2.66;100.00;95064.88;5054241;28;1143;-62
2024/01/05 01:30:08;;;;;;;;;;;;;;;2.77;100.00;95064.06;5054597;28;974;-62
2024/01/05 01:32:36;;;;;;;;;;;;;;;2.76;100.00;95072.97;5054275;28;1020;-62
2024/01/05 01:35:03;;;;;;;;;;;;;;;2.87;100.00;95070.34;5054314;28;1116;-62
2024/01/05 01:37:29;;;;;;;;;;;;;;;2.98;100.00;95078.31;5054199;28;1088;-62
2024/01/05 01:39:55;;;;;;;;;;;;;;;3.09;100.00;95064.25;5054105;28;925;-62
2024/01/05 01:42:21;;;;;;;;;;;;;;;3.15;100.00;95065.59;5054231;28;1989;-62
2024/01/05 01:44:47;;;;;;;;;;;;;;;3.08;100.00;95067.88;5054285;28;973;-62
2024/01/05 01:47:13;;;;;;;;;;;;;;;2.82;100.00;95073.31;5054120;28;1027;-62
2024/01/05 01:49:39;;;;;;;;;;;;;;;2.52;100.00;95071.19;5054100;28;1046;-62
2024/01/05 01:52:06;;;;;;;;;;;;;;;2.56;100.00;95075.28;5053549;28;902;-62
2024/01/05 01:54:33;;;;;;;;;;;;;;;2.64;100.00;95082.66;5053823;28;1060;-63
2024/01/05 01:57:01;;;;;;;;;;;;;;;2.75;100.00;95077.38;5054060;28;1058;-62
2024/01/05 01:59:28;;;;;;;;;;;;;;;2.94;100.00;95079.50;5053979;28;1004;-62
2024/01/05 02:01:54;;;;;;;;;;;;;;;3.05;100.00;95079.50;5053672;28;1983;-62
2024/01/05 02:04:22;;;;;;;;;;;;;;;3.06;100.00;95073.25;5053690;28;1075;-63
2024/01/05 02:06:48;;;;;;;;;;;;;;;2.90;100.00;95081.53;5053959;28;1052;-63
2024/01/05 02:09:14;;;;;;;;;;;;;;;2.67;100.00;95080.59;5053827;28;965;-63
2024/01/05 02:11:40;;;;;;;;;;;;;;;2.48;100.00;95080.28;5053668;28;1106;-63
2024/01/05 02:14:06;;;;;;;;;;;;;;;2.17;100.00;95068.53;5053602;28;1111;-62
2024/01/05 02:16:32;;;;;;;;;;;;;;;2.18;100.00;95083.38;5053708;28;1050;-63
2024/01/05 02:18:58;;;;;;;;;;;;;;;2.45;100.00;95084.00;5053948;28;1091;-63
2024/01/05 02:21:28;;;;;;;;;;;;;;;2.62;100.00;95087.16;5053672;28;1045;-63
2024/01/05 02:23:54;;;;;;;;;;;;;;;2.57;100.00;95092.81;5053666;28;1990;-63
2024/01/05 02:26:21;;;;;;;;;;;;;;;2.49;100.00;95089.91;5053534;28;976;-63
2024/01/05 02:28:47;;;;;;;;;;;;;;;2.40;100.00;95095.84;5053130;28;1212;-63
2024/01/05 02:31:13;;;;;;;;;;;;;;;2.43;100.00;95090.34;5053773;28;1068;-63
2024/01/05 02:33:39;;;;;;;;;;;;;;;2.50;100.00;95094.22;5053317;28;979;-63
2024/01/05 02:36:05;;;;;;;;;;;;;;;2.59;100.00;95097.97;5053506;28;990;-63
2024/01/05 02:38:31;;;;;;;;;;;;;;;2.64;100.00;95101.13;5053095;28;1124;-62
2024/01/05 02:40:58;;;;;;;;;;;;;;;2.76;100.00;95102.00;5053511;28;1031;-63
2024/01/05 02:43:24;;;;;;;;;;;;;;;2.85;100.00;95112.72;5053336;28;1910;-63
2024/01/05 02:45:50;;;;;;;;;;;;;;;2.92;100.00;95115.72;5053458;28;1047;-63
2024/01/05 02:48:16;;;;;;;;;;;;;;;2.87;100.00;95118.72;5052995;28;1115;-62
2024/01/05 02:50:42;;;;;;;;;;;;;;;2.84;100.00;95111.00;5053358;28;966;-62
2024/01/05 02:53:08;;;;;;;;;;;;;;;2.67;100.00;95106.16;5053093;28;1033;-63
2024/01/05 02:55:34;;;;;;;;;;;;;;;2.58;100.00;95110.34;5053107;28;986;-63
2024/01/05 02:58:03;;;;;;;;;;;;;;;2.42;100.00;95121.16;5053326;28;1038;-63
2024/01/05 03:00:29;;;;;;;;;;;;;;;2.35;100.00;95122.56;5052903;28;1253;-63
2024/01/05 03:02:56;;;;;;;;;;;;;;;2.29;100.00;95123.00;5053162;28;1914;-63
2024/01/05 03:05:22;;;;;;;;;;;;;;;2.45;100.00;95130.66;5056383;28;1065;-63
2024/01/05 03:07:48;;;;;;;;;;;;;;;2.67;100.00;95128.13;5057346;28;962;-63
2024/01/05 03:10:14;;;;;;;;;;;;;;;2.78;100.00;95135.25;5057285;28;1008;-63
2024/01/05 03:12:41;;;;;;;;;;;;;;;2.86;100.00;95127.59;5056988;28;1045;-63
2024/01/05 03:15:07;;;;;;;;;;;;;;;2.85;100.00;95131.19;5056959;28;914;-63
2024/01/05 03:17:34;;;;;;;;;;;;;;;2.90;100.00;95129.06;5056812;28;992;-63
2024/01/05 03:20:01;;;;;;;;;;;;;;;2.96;100.00;95130.41;5057195;28;1042;-63
2024/01/05 03:22:27;;;;;;;;;;;;;;;2.76;100.00;95136.31;5056654;28;1906;-63
2024/01/05 03:24:53;;;;;;;;;;;;;;;2.75;100.00;95135.47;5056983;28;966;-62
2024/01/05 03:27:19;;;;;;;;;;;;;;;2.87;100.00;95145.13;5056463;28;1131;-63
2024/01/05 03:29:44;;;;;;;;;;;;;;;2.89;100.00;95153.78;5056699;28;1226;-63
2024/01/05 03:32:10;;;;;;;;;;;;;;;2.86;100.00;95151.34;5056685;28;1043;-63
2024/01/05 03:34:37;;;;;;;;;;;;;;;2.91;100.00;95146.56;5056857;28;977;-62
2024/01/05 03:37:03;;;;;;;;;;;;;;;2.89;100.00;95145.03;5039200;28;993;-63
2024/01/05 03:39:29;;;;;;;;;;;;;;;2.99;100.00;95153.09;5056775;28;977;-63
2024/01/05 03:41:55;;;;;;;;;;;;;;;2.92;100.00;95153.56;5056504;28;1906;-63
2024/01/05 03:44:21;;;;;;;;;;;;;;;2.93;100.00;95157.03;5056698;28;1033;-63
2024/01/05 03:46:48;;;;;;;;;;;;;;;2.80;100.00;95157.09;5056681;28;1149;-63
2024/01/05 03:49:14;;;;;;;;;;;;;;;2.61;100.00;95157.59;5056296;28;1051;-62
2024/01/05 03:51:40;;;;;;;;;;;;;;;2.52;100.00;95169.69;5056609;28;1011;-62
2024/01/05 03:54:06;;;;;;;;;;;;;;;2.40;100.00;95167.94;5056249;28;1028;-63
2024/01/05 03:56:42;;;;;;;;;;;;;;;2.32;100.00;95163.22;5056281;28;985;-63
2024/01/05 03:59:08;;;;;;;;;;;;;;;2.26;100.00;95168.09;5056204;28;984;-63
2024/01/05 04:01:41;;;;;;;;;;;;;;;2.39;100.00;95174.19;5038494;28;1050;-63
2024/01/05 04:04:07;;;;;;;;;;;;;;;2.53;100.00;95173.16;5056216;28;1918;-63
2024/01/05 04:06:33;;;;;;;;;;;;;;;2.62;100.00;95171.63;5056113;28;1071;-63
2024/01/05 04:08:59;;;;;;;;;;;;;;;2.71;100.00;95186.81;5056311;28;977;-66
2024/01/05 04:11:29;;;;;;;;;;;;;;;2.64;100.00;95175.03;5056170;28;970;-60
2024/01/05 04:13:56;;;;;;;;;;;;;;;2.60;100.00;95184.97;5056247;28;1235;-60
2024/01/05 04:16:22;;;;;;;;;;;;;;;2.73;100.00;95195.47;5055398;28;1103;-61
2024/01/05 04:18:48;;;;;;;;;;;;;;;2.70;100.00;95199.19;5055942;28;962;-63
2024/01/05 04:21:14;;;;;;;;;;;;;;;2.72;100.00;95193.78;5055942;28;989;-63
2024/01/05 04:23:40;;;;;;;;;;;;;;;2.82;100.00;95196.59;5055724;28;1910;-61
2024/01/05 04:26:06;;;;;;;;;;;;;;;2.69;100.00;95194.00;5055785;28;979;-62
2024/01/05 04:28:32;;;;;;;;;;;;;;;2.79;100.00;95191.53;5055345;28;1103;-62
2024/01/05 04:30:58;;;;;;;;;;;;;;;2.69;100.00;95194.00;5055417;28;1036;-60
2024/01/05 04:33:24;;;;;;;;;;;;;;;2.57;100.00;95194.91;5055430;28;1080;-60
2024/01/05 04:35:50;;;;;;;;;;;;;;;2.41;100.00;95201.31;5037741;28;1296;-62
2024/01/05 04:38:16;;;;;;;;;;;;;;;2.39;100.00;95202.34;5055262;28;1041;-62
2024/01/05 04:40:42;;;;;;;;;;;;;;;2.31;100.00;95211.66;5055359;28;1036;-62
2024/01/05 04:43:08;;;;;;;;;;;;;;;2.53;100.00;95213.59;5055351;28;1987;-61
2024/01/05 04:45:37;;;;;;;;;;;;;;;2.65;100.00;95213.66;5055417;28;1052;-61
2024/01/05 04:48:04;;;;;;;;;;;;;;;2.49;100.00;95208.66;5055487;28;978;-60
2024/01/05 04:50:30;;;;;;;;;;;;;;;2.50;100.00;95219.13;5055226;28;1049;-61
2024/01/05 04:52:56;;;;;;;;;;;;;;;2.46;100.00;95220.25;5055391;28;1065;-61
2024/01/05 04:55:22;;;;;;;;;;;;;;;2.35;100.00;95217.56;5055026;28;1056;-63
2024/01/05 04:57:48;;;;;;;;;;;;;;;2.35;100.00;95228.09;5055069;28;1103;-63
2024/01/05 05:00:14;;;;;;;;;;;;;;;2.57;100.00;95239.78;5054893;28;1111;-60
2024/01/05 05:02:40;;;;;;;;;;;;;;;2.61;100.00;95249.16;5055123;28;1914;-61
2024/01/05 05:05:06;;;;;;;;;;;;;;;2.49;100.00;95243.81;5055233;28;1008;-62
2024/01/05 05:07:32;;;;;;;;;;;;;;;2.35;100.00;95251.84;5037229;28;971;-61
2024/01/05 05:09:58;;;;;;;;;;;;;;;2.38;100.00;95249.00;5054989;28;1019;-61
2024/01/05 05:12:24;;;;;;;;;;;;;;;2.67;100.00;95246.06;5054826;28;994;-61
2024/01/05 05:14:50;;;;;;;;;;;;;;;2.61;100.00;95250.00;5054653;28;1049;-62
2024/01/05 05:17:16;;;;;;;;;;;;;;;2.54;100.00;95251.38;5054818;28;1046;-62
2024/01/05 05:19:42;;;;;;;;;;;;;;;2.56;100.00;95259.19;5054966;28;986;-62
2024/01/05 05:22:08;;;;;;;;;;;;;;;2.57;100.00;95259.09;5054605;28;1983;-63
2024/01/05 05:24:35;;;;;;;;;;;;;;;2.47;100.00;95256.28;5054483;28;1020;-63
2024/01/05 05:27:01;;;;;;;;;;;;;;;2.41;100.00;95264.63;5053745;28;1111;-61
2024/01/05 05:29:27;;;;;;;;;;;;;;;2.29;100.00;95266.31;5054199;28;1211;-65
2024/01/05 05:31:53;;;;;;;;;;;;;;;2.19;100.00;95265.28;5054662;28;1008;-63
2024/01/05 05:34:19;;;;;;;;;;;;;;;2.30;100.00;95264.56;5054635;28;1217;-63
2024/01/05 05:36:45;;;;;;;;;;;;;;;2.45;100.00;95270.53;5036925;28;1065;-62
2024/01/05 05:39:11;;;;;;;;;;;;;;;2.47;100.00;95266.84;5054200;28;1281;-61
2024/01/05 05:41:37;;;;;;;;;;;;;;;2.38;100.00;95264.84;5054459;28;967;-62
2024/01/05 05:44:03;;;;;;;;;;;;;;;2.14;100.00;95270.03;5054269;28;1977;-62
2024/01/05 05:46:29;;;;;;;;;;;;;;;2.08;100.00;95276.59;5054380;28;1045;-64
2024/01/05 05:48:55;;;;;;;;;;;;;;;2.03;100.00;95270.81;5036664;28;1026;-62
2024/01/05 05:51:21;;;;;;;;;;;;;;;2.07;100.00;95277.53;5053993;28;1087;-62
2024/01/05 05:53:47;;;;;;;;;;;;;;;2.25;100.00;95269.31;5054477;28;985;-62
2024/01/05 05:56:13;;;;;;;;;;;;;;;2.13;100.00;95279.75;5053887;28;1064;-64
2024/01/05 05:58:39;;;;;;;;;;;;;;;1.99;100.00;95279.84;5053856;28;1091;-63
2024/01/05 06:01:06;;;;;;;;;;;;;;;2.00;100.00;95278.91;5054100;28;1052;-64
2024/01/05 06:03:32;;;;;;;;;;;;;;;2.03;100.00;95283.13;5053848;28;2003;-64
2024/01/05 06:05:58;;;;;;;;;;;;;;;2.05;100.00;95279.44;5053519;28;1092;-64
2024/01/05 06:08:24;;;;;;;;;;;;;;;2.26;100.00;95278.91;5053568;28;1037;-65
2024/01/05 06:10:50;;;;;;;;;;;;;;;2.23;100.00;95297.59;5053879;28;970;-65
2024/01/05 06:13:16;;;;;;;;;;;;;;;2.18;100.00;95287.34;5053731;28;1023;-65
2024/01/05 06:15:42;;;;;;;;;;;;;;;2.21;100.00;95283.66;5053617;28;1096;-65
2024/01/05 06:18:08;;;;;;;;;;;;;;;2.24;100.00;95294.84;5053752;28;978;-66
2024/01/05 06:20:34;;;;;;;;;;;;;;;2.24;100.00;95294.84;5053485;28;921;-65
2024/01/05 06:23:00;;;;;;;;;;;;;;;2.18;100.00;95295.25;5053496;28;1988;-65
2024/01/05 06:25:25;;;;;;;;;;;;;;;2.24;100.00;95294.84;5053666;28;990;-65
2024/01/05 06:27:52;;;;;;;;;;;;;;;2.34;100.00;95300.31;5053239;28;1134;-64
2024/01/05 06:30:18;;;;;;;;;;;;;;;2.33;100.00;95299.47;5053583;28;988;-64
2024/01/05 06:32:44;;;;;;;;;;;;;;;2.31;100.00;95303.16;5053298;28;1052;-63
2024/01/05 06:35:12;;;;;;;;;;;;;;;2.36;100.00;95298.41;5053588;28;1064;-64
2024/01/05 06:37:38;;;;;;;;;;;;;;;2.30;100.00;95304.97;5053485;28;966;-64
2024/01/05 06:40:04;;;;;;;;;;;;;;;2.34;100.00;95305.59;5053496;28;986;-64
2024/01/05 06:42:30;;;;;;;;;;;;;;;2.31;100.00;95308.44;5053126;28;1993;-65
2024/01/05 06:44:56;;;;;;;;;;;;;;;2.33;100.00;95307.41;5053444;28;1000;-66
2024/01/05 06:47:22;;;;;;;;;;;;;;;2.31;100.00;95308.44;5053168;28;1071;-65
2024/01/05 06:49:48;;;;;;;;;;;;;;;2.23;100.00;95308.13;5053376;28;965;-65
2024/01/05 06:52:14;;;;;;;;;;;;;;;2.19;100.00;95317.22;5053115;28;1033;-65
2024/01/05 06:54:40;;;;;;;;;;;;;;;2.25;100.00;95320.25;5035628;28;997;-66
2024/01/05 06:57:07;;;;;;;;;;;;;;;2.29;100.00;95318.25;5035321;28;1041;-66
2024/01/05 06:59:36;;;;;;;;;;;;;;;2.30;100.00;95319.97;5053164;28;1051;-65
2024/01/05 07:02:02;;;;;;;;;;;;;;;2.23;100.00;95322.16;5052982;28;1922;-65
2024/01/05 07:04:28;;;;;;;;;;;;;;;2.33;100.00;95327.66;5052956;28;1046;-66
2024/01/05 07:06:54;;;;;;;;;;;;;;;2.32;100.00;95323.34;5052917;28;1052;-66
2024/01/05 07:09:20;;;;;;;;;;;;;;;2.20;100.00;95319.75;5053078;28;1032;-66
2024/01/05 07:11:46;;;;;;;;;;;;;;;2.14;100.00;95321.03;5052796;28;967;-62
2024/01/05 07:14:12;;;;;;;;;;;;;;;2.36;100.00;95324.81;5052761;28;1033;-63
2024/01/05 07:16:38;;;;;;;;;;;;;;;2.45;100.00;95318.06;5052604;28;1044;-63
2024/01/05 07:19:04;;;;;;;;;;;;;;;2.64;100.00;95307.03;5052978;28;1047;-63
2024/01/05 07:21:30;;;;;;;;;;;;;;;2.76;100.00;95311.44;5052781;28;1059;-62
2024/01/05 07:23:56;;;;;;;;;;;;;;;2.97;100.00;95322.25;5052738;28;1918;-65
2024/01/05 07:26:23;;;;;;;;;;;;;;;2.81;100.00;95329.56;5052604;28;1021;-64
2024/01/05 07:28:49;;;;;;;;;;;;;;;2.65;100.00;95330.66;5052466;28;1186;-64
2024/01/05 07:31:21;;;;;;;;;;;;;;;2.38;100.00;95330.81;5052851;28;1041;-63
2024/01/05 07:33:47;;;;;;;;;;;;;;;2.61;100.00;95331.00;5052747;28;994;-65
2024/01/05 07:36:13;;;;;;;;;;;;;;;2.80;100.00;95334.03;5058155;28;1091;-65
2024/01/05 07:38:39;;;;;;;;;;;;;;;2.93;100.00;95340.09;5063131;28;1233;-65
2024/01/05 07:41:05;;;;;;;;;;;;;;;3.01;100.00;95325.50;5062374;28;1249;-64
2024/01/05 07:43:31;;;;;;;;;;;;;;;2.91;100.00;95331.47;5061201;28;1988;-63
2024/01/05 07:45:57;;;;;;;;;;;;;;;3.03;100.00;95320.97;5063275;28;1221;-63
2024/01/05 07:48:23;;;;;;;;;;;;;;;3.19;100.00;95324.19;5062300;28;1277;-64
2024/01/05 07:50:49;;;;;;;;;;;;;;;3.14;100.00;95334.25;5045969;28;1217;-64
2024/01/05 07:53:15;;;;;;;;;;;;;;;3.22;100.00;95328.41;5055705;28;1301;-64
2024/01/05 07:55:42;;;;;;;;;;;;;;;3.24;100.00;95327.31;5076221;28;990;-63
2024/01/05 07:58:08;;;;;;;;;;;;;;;3.18;100.00;95335.69;5076403;28;1019;-63
2024/01/05 08:00:34;;;;;;;;;;;;;;;3.06;100.00;95333.97;5076092;28;1040;-63
2024/01/05 08:03:03;;;;;;;;;;;;;;;3.33;100.00;95337.22;5075989;28;1996;-63
2024/01/05 08:05:29;;;;;;;;;;;;;;;3.39;100.00;95332.44;5076256;28;1041;-63
2024/01/05 08:07:55;;;;;;;;;;;;;;;3.10;100.00;95330.13;5076333;28;994;-63
2024/01/05 08:10:21;;;;;;;;;;;;;;;3.09;100.00;95323.16;5076100;28;1135;-62
2024/01/05 08:12:47;;;;;;;;;;;;;;;2.95;100.00;95331.25;5076198;28;1045;-63
2024/01/05 08:15:13;;;;;;;;;;;;;;;3.03;100.00;95334.16;5076005;28;986;-63
2024/01/05 08:17:40;;;;;;;;;;;;;;;3.42;100.00;95326.94;5075735;28;1040;-63
2024/01/05 08:20:07;;;;;;;;;;;;;;;3.44;100.00;95322.38;5075868;28;1084;-63
2024/01/05 08:22:34;;;;;;;;;;;;;;;3.33;100.00;95320.53;5075727;28;2001;-63
2024/01/05 08:25:00;;;;;;;;;;;;;;;3.05;100.00;95288.19;5075689;28;1052;-63
2024/01/05 08:27:26;;;;;;;;;;;;;;;3.16;100.00;95315.63;5074539;28;1157;-63
2024/01/05 08:29:52;;;;;;;;;;;;;;;3.12;100.00;95315.00;5038065;28;1379;-62
2024/01/05 08:32:18;;;;;;;;;;;;;;;3.13;100.00;95317.56;5055712;28;1057;-63
2024/01/05 08:34:44;;;;;;;;;;;;;;;3.26;100.00;95320.16;5061539;28;1084;-64
2024/01/05 08:37:10;;;;;;;;;;;;;;;3.55;100.00;95325.09;5047483;28;1233;-63
2024/01/05 08:39:39;;;;;;;;;;;;;;;3.84;100.00;95320.25;5065548;28;1264;-64
2024/01/05 08:42:06;;;;;;;;;;;;;;;3.87;100.00;95329.72;5061557;28;2021;-64
2024/01/05 08:44:32;;;;;;;;;;;;;;;3.74;100.00;95324.56;5066691;28;1288;-63
2024/01/05 08:46:58;;;;;;;;;;;;;;;3.44;100.00;95322.38;5064389;28;1240;-63
2024/01/05 08:49:24;;;;;;;;;;;;;;;3.41;100.00;95318.16;5075680;28;1372;-64
2024/01/05 08:51:50;;;;;;;;;;;;;;;3.60;100.00;95319.44;5075202;28;1096;-63
2024/01/05 08:54:16;;;;;;;;;;;;;;;3.77;100.00;95324.31;5075256;28;962;-61
2024/01/05 08:56:42;;;;;;;;;;;;;;;3.77;100.00;95319.00;5074851;28;1232;-61
2024/01/05 08:59:08;;;;;;;;;;;;;;;3.63;100.00;95322.69;5063803;28;1285;-61
2024/01/05 09:01:34;;;;;;;;;;;;;;;3.71;100.00;95317.66;5063387;28;1280;-61
2024/01/05 09:04:00;;;;;;;;;;;;;;;3.76;100.00;95321.78;5065436;28;1946;-61
2024/01/05 09:06:27;;;;;;;;;;;;;;;3.47;100.00;95314.22;5060769;28;1161;-61
2024/01/05 09:08:53;;;;;;;;;;;;;;;3.43;100.00;95332.09;5064741;28;1233;-61
2024/01/05 09:11:19;;;;;;;;;;;;;;;3.53;100.00;95327.00;5065114;28;1309;-64
2024/01/05 09:13:45;;;;;;;;;;;;;;;3.74;100.00;95324.56;5045910;28;1348;-64
2024/01/05 09:16:12;;;;;;;;;;;;;;;3.96;100.00;95323.75;5047161;28;1296;-63
2024/01/05 09:18:38;;;;;;;;;;;;;;;4.01;100.00;95321.59;5065209;28;1234;-64
2024/01/05 09:21:07;;;;;;;;;;;;;;;3.95;100.00;95324.72;5063446;28;1225;-64
2024/01/05 09:23:33;;;;;;;;;;;;;;;3.99;100.00;95320.06;5064007;28;1983;-64
2024/01/05 09:26:00;;;;;;;;;;;;;;;4.08;100.00;95316.72;5065256;28;1288;-65
2024/01/05 09:28:26;;;;;;;;;;;;;;;4.41;100.00;95323.00;5061679;28;1591;-64
2024/01/05 09:30:52;;;;;;;;;;;;;;;4.23;100.00;95323.47;5046326;28;1284;-64
2024/01/05 09:33:19;;;;;;;;;;;;;;;4.34;100.00;95325.25;5062993;28;1315;-64
2024/01/05 09:35:45;;;;;;;;;;;;;;;4.11;100.00;95321.75;5065164;28;1316;-64
2024/01/05 09:38:11;;;;;;;;;;;;;;;4.05;100.00;95320.41;5063431;28;1245;-64
2024/01/05 09:40:37;;;;;;;;;;;;;;;4.09;100.00;95318.38;5045695;28;1257;-64
2024/01/05 09:43:07;;;;;;;;;;;;;;;4.17;100.00;95309.84;5064996;28;1918;-64
2024/01/05 09:45:34;;;;;;;;;;;;;;;4.38;100.00;95313.50;5063700;28;1238;-64
2024/01/05 09:48:02;;;;;;;;;;;;;;;4.57;100.00;95317.34;5063094;28;1241;-64
2024/01/05 09:50:28;;;;;;;;;;;;;;;4.44;100.00;95318.31;5064617;28;1291;-65
2024/01/05 09:52:54;;;;;;;;;;;;;;;4.41;100.00;95310.59;5063487;28;1300;-65
2024/01/05 09:55:20;;;;;;;;;;;;;;;4.33;100.00;95310.34;5062945;28;1229;-65
2024/01/05 09:57:50;;;;;;;;;;;;;;;4.17;100.00;95318.63;5047085;28;1391;-65
2024/01/05 10:00:17;;;;;;;;;;;;;;;4.18;100.00;95308.91;5063839;28;1342;-64
2024/01/05 10:02:57;;;;;;;;;;;;;;;4.35;100.00;95312.88;5062560;28;1918;-65
2024/01/05 10:05:23;;;;;;;;;;;;;;;4.42;100.00;95309.66;5044687;28;1296;-66
2024/01/05 10:07:49;;;;;;;;;;;;;;;4.46;100.00;95316.38;5064198;28;1284;-66
2024/01/05 10:10:15;;;;;;;;;;;;;;;4.46;100.00;95299.66;5063253;28;1265;-66
2024/01/05 10:12:41;;;;;;;;;;;;;;;4.74;100.00;95311.53;5061882;28;1284;-66
2024/01/05 10:15:08;;;;;;;;;;;;;;;4.72;100.00;95308.19;5064328;28;1272;-66
2024/01/05 10:17:34;;;;;;;;;;;;;;;4.59;100.00;95304.81;5063356;28;1349;-66
2024/01/05 10:20:14;;;;;;;;;;;;;;;4.66;100.00;95298.91;5044439;28;1368;-66
2024/01/05 10:22:41;;;;;;;;;;;;;;;5.05;100.00;95298.53;5062951;28;1910;-66
2024/01/05 10:25:15;;;;;;;;;;;;;;;5.07;100.00;95291.28;5059689;28;1226;-66
2024/01/05 10:27:41;;;;;;;;;;;;;;;5.20;100.00;95285.84;5064006;28;1287;-66
2024/01/05 10:30:10;;;;;;;;;;;;;;;5.32;100.00;95281.34;5059287;28;1143;-66
2024/01/05 10:32:36;;;;;;;;;;;;;;;5.11;100.00;95275.97;5045019;28;1249;-66
2024/01/05 10:35:03;;;;;;;;;;;;;;;5.15;100.00;95275.59;5064128;28;1288;-66
2024/01/05 10:37:29;;;;;;;;;;;;;;;5.22;100.00;95274.13;5062206;28;1229;-65
2024/01/05 10:39:56;;;;;;;;;;;;;;;5.02;100.00;95266.94;5044993;28;1229;-66
2024/01/05 10:42:22;;;;;;;;;;;;;;;5.20;100.00;95264.63;5063636;28;1996;-63
2024/01/05 10:44:51;;;;;;;;;;;;;;;5.36;100.00;95265.03;5062283;28;1277;-63
2024/01/05 10:47:18;;;;;;;;;;;;;;;5.25;100.00;95260.63;5062402;28;1280;-63
2024/01/05 12:44:16;;;;;;;;;;;;;;;3.81;100.00;95188.22;5146849;27;2644;-62
2024/01/05 12:46:43;;;;;;;;;;;;;;;4.11;100.00;95181.50;5151789;27;1257;-62
2024/01/05 12:49:19;;;;;;;;;;;;;;;4.47;100.00;95182.19;5151677;27;1260;-63
2024/01/05 12:51:47;;;;;;;;;;;;;;;4.91;100.00;95183.03;5150311;27;1236;-62
2024/01/05 12:54:13;;;;;;;;;;;;;;;5.06;100.00;95183.56;5151476;27;1173;-63
2024/01/05 12:56:44;;;;;;;;;;;;;;;5.28;100.00;95182.66;5151499;27;1272;-63
2024/01/05 12:59:17;;;;;;;;;;;;;;;5.35;100.00;95175.88;5151815;27;1275;-63
2024/01/05 13:01:43;;;;;;;;;;;;;;;5.33;100.00;95175.16;5149812;27;1212;-63
2024/01/05 13:04:09;;;;;;;;;;;;;;;5.18;100.00;95169.31;5151389;27;1897;-62
2024/01/05 13:06:37;;;;;;;;;;;;;;;5.32;100.00;95173.47;5151339;27;1291;-63
2024/01/05 13:09:03;;;;;;;;;;;;;;;5.40;100.00;95162.22;5151732;27;1288;-63
2024/01/05 13:11:29;;;;;;;;;;;;;;;5.28;100.00;95162.28;5151261;27;1280;-63
2024/01/05 13:13:56;;;;;;;;;;;;;;;5.23;100.00;95156.50;5151553;27;1284;-64
2024/01/05 13:16:22;;;;;;;;;;;;;;;5.30;100.00;95150.72;5151211;27;1236;-63
2024/01/05 13:18:48;;;;;;;;;;;;;;;5.36;100.00;95166.94;5151426;27;1244;-64
2024/01/05 13:21:14;;;;;;;;;;;;;;;5.34;100.00;95158.28;5151145;27;1289;-64
2024/01/05 13:23:40;;;;;;;;;;;;;;;5.30;100.00;95158.66;5132658;27;1905;-63
2024/01/05 13:26:06;;;;;;;;;;;;;;;5.34;100.00;95158.28;5151033;27;1213;-64
2024/01/05 13:31:35;;;;;;;;;;;;;;;5.22;100.00;95149.53;5151700;27;1019;-64
2024/01/05 13:34:01;;;;;;;;;;;;;;;5.18;100.00;95148.13;5133180;27;972;-64
2024/01/05 13:36:27;;;;;;;;;;;;;;;5.31;100.00;95149.72;5151234;27;1056;-64
2024/01/05 13:38:53;;;;;;;;;;;;;;;5.22;100.00;95144.25;5151432;27;1056;-62
2024/01/05 13:41:19;;;;;;;;;;;;;;;5.41;100.00;95145.34;5151537;27;991;-62
2024/01/05 13:43:45;;;;;;;;;;;;;;;5.39;100.00;95145.47;5150970;27;1915;-63
2024/01/05 13:46:11;;;;;;;;;;;;;;;5.41;100.00;95145.34;5150996;27;1328;-62
2024/01/05 13:48:37;;;;;;;;;;;;;;;5.47;100.00;95143.00;5150854;27;1310;-62
2024/01/05 13:51:03;;;;;;;;;;;;;;;5.40;100.00;95143.66;5132517;27;1372;-63
2024/01/05 13:53:29;;;;;;;;;;;;;;;5.47;100.00;95139.50;5149363;27;1208;-62
2024/01/05 13:55:57;;;;;;;;;;;;;;;5.21;100.00;95136.41;5136668;27;1216;-62
2024/01/05 13:58:24;;;;;;;;;;;;;;;5.04;100.00;95133.34;5137011;27;1237;-63
2024/01/05 14:00:50;;;;;;;;;;;;;;;5.14;100.00;95141.41;5136862;27;1288;-62
2024/01/05 14:03:16;;;;;;;;;;;;;;;5.23;100.00;95135.31;5136371;27;1897;-62
2024/01/05 14:05:42;;;;;;;;;;;;;;;5.30;100.00;95135.63;5136358;27;1351;-63
2024/01/05 14:08:08;;;;;;;;;;;;;;;5.17;100.00;95135.81;5136774;27;1276;-62
2024/01/05 14:10:34;;;;;;;;;;;;;;;5.20;100.00;95137.41;5136529;27;1276;-63
2024/01/05 14:13:01;;;;;;;;;;;;;;;5.28;100.00;95135.75;5136743;27;1283;-62
2024/01/05 14:15:27;;;;;;;;;;;;;;;5.29;100.00;95149.84;5135968;27;1390;-63
2024/01/05 14:17:53;;;;;;;;;;;;;;;5.43;100.00;95164.63;5135802;27;1356;-63
2024/01/05 14:20:19;;;;;;;;;;;;;;;5.36;100.00;95160.78;5117982;27;1237;-62
2024/01/05 14:22:45;;;;;;;;;;;;;;;5.36;100.00;95171.41;5136268;27;1981;-62
2024/01/05 14:25:11;;;;;;;;;;;;;;;5.36;100.00;95160.78;5118077;27;1288;-63
2024/01/05 14:27:37;;;;;;;;;;;;;;;5.21;100.00;95154.97;5136419;27;1260;-62
2024/01/05 14:30:05;;;;;;;;;;;;;;;5.14;100.00;95152.00;5136158;27;1248;-63
2024/01/05 14:32:31;;;;;;;;;;;;;;;5.50;100.00;95170.22;5133657;27;1229;-64
2024/01/05 14:34:57;;;;;;;;;;;;;;;5.58;100.00;95184.53;5135945;27;1231;-61
2024/01/05 14:37:23;;;;;;;;;;;;;;;5.46;100.00;95178.47;5136224;27;1343;-65
2024/01/05 14:39:49;;;;;;;;;;;;;;;5.51;100.00;95171.94;5133355;27;1165;-64
2024/01/05 14:42:15;;;;;;;;;;;;;;;5.70;100.00;95174.69;5135826;27;1917;-65
2024/01/05 14:44:41;;;;;;;;;;;;;;;5.55;100.00;95166.22;5135805;27;1341;-65
2024/01/05 14:47:07;;;;;;;;;;;;;;;5.25;100.00;95157.25;5117780;27;1336;-66
2024/01/05 14:49:33;;;;;;;;;;;;;;;5.28;100.00;95170.22;5135764;27;1244;-67